KCHK/CHK METAR and TAF weather

Enter ICAO airport designator
Station Type Date Time Source
KCHK METAR 2018/10/22 16:35 UTC NOAA

KCHK 221635Z AUTO 19007KT 10SM CLR 16/08 A3016 RMK AO2 T01640079


Station Type Date Time Source
KCHK Decoded METAR 2018/10/22 16:35 UTC NOAA

Chickasha, Chickasha Municipal Airport, OK, United States (KCHK) 35-05-46N 097-57-58W
Oct 22, 2018 - 12:35 PM EDT / 2018.10.22 1635 UTC
Wind: from the S (190 degrees) at 8 MPH (7 KT):0
Visibility: 10 mile(s):0
Sky conditions: clear
Temperature: 61.5 F (16.4 C)
Dew Point: 46.2 F (7.9 C)
Relative Humidity: 57%
Pressure (altimeter): 30.16 in. Hg (1021 hPa)
ob: KCHK 221635Z AUTO 19007KT 10SM CLR 16/08 A3016 RMK AO2 T01640079
cycle: 16

Station Type Date Time Source
KCHK TAF UTC NOAA

Error!


Example: see airport list